sensor_id;sensor_type;location;lat;lon;timestamp;temperature;humidity
80132;SHT30;69442;51.442;10.564;2023-06-14T00:02:10;19.87;37.72
80132;SHT30;69442;51.442;10.564;2023-06-14T00:04:37;19.84;37.64
80132;SHT30;69442;51.442;10.564;2023-06-14T00:07:05;19.81;37.68
80132;SHT30;69442;51.442;10.564;2023-06-14T00:09:33;19.74;37.75
80132;SHT30;69442;51.442;10.564;2023-06-14T00:11:58;19.73;37.86
80132;SHT30;69442;51.442;10.564;2023-06-14T00:14:24;19.69;37.78
80132;SHT30;69442;51.442;10.564;2023-06-14T00:16:49;19.62;37.72
80132;SHT30;69442;51.442;10.564;2023-06-14T00:19:14;19.57;37.97
80132;SHT30;69442;51.442;10.564;2023-06-14T00:21:41;19.53;38.11
80132;SHT30;69442;51.442;10.564;2023-06-14T00:24:07;19.49;37.98
80132;SHT30;69442;51.442;10.564;2023-06-14T00:26:32;19.43;37.95
80132;SHT30;69442;51.442;10.564;2023-06-14T00:28:58;19.39;37.87
80132;SHT30;69442;51.442;10.564;2023-06-14T00:31:23;19.33;38.16
80132;SHT30;69442;51.442;10.564;2023-06-14T00:33:49;19.28;38.25
80132;SHT30;69442;51.442;10.564;2023-06-14T00:36:14;19.19;38.19
80132;SHT30;69442;51.442;10.564;2023-06-14T00:38:39;19.18;38.33
80132;SHT30;69442;51.442;10.564;2023-06-14T00:41:05;19.12;38.29
80132;SHT30;69442;51.442;10.564;2023-06-14T00:43:30;19.07;38.35
80132;SHT30;69442;51.442;10.564;2023-06-14T00:45:56;19.04;38.56
80132;SHT30;69442;51.442;10.564;2023-06-14T00:48:21;18.95;38.49
80132;SHT30;69442;51.442;10.564;2023-06-14T00:50:49;18.92;38.42
80132;SHT30;69442;51.442;10.564;2023-06-14T00:53:16;18.88;38.55
80132;SHT30;69442;51.442;10.564;2023-06-14T00:55:46;18.85;38.73
80132;SHT30;69442;51.442;10.564;2023-06-14T00:58:12;18.77;38.52
80132;SHT30;69442;51.442;10.564;2023-06-14T01:00:37;18.74;38.65
80132;SHT30;69442;51.442;10.564;2023-06-14T01:03:03;18.66;38.76
80132;SHT30;69442;51.442;10.564;2023-06-14T01:05:29;18.61;38.81
80132;SHT30;69442;51.442;10.564;2023-06-14T01:08:21;18.56;39.15
80132;SHT30;69442;51.442;10.564;2023-06-14T01:10:56;18.47;39.09
80132;SHT30;69442;51.442;10.564;2023-06-14T01:13:31;18.45;39.06
80132;SHT30;69442;51.442;10.564;2023-06-14T01:15:58;18.36;39.39
80132;SHT30;69442;51.442;10.564;2023-06-14T01:18:24;18.32;39.52
80132;SHT30;69442;51.442;10.564;2023-06-14T01:20:51;18.26;39.45
80132;SHT30;69442;51.442;10.564;2023-06-14T01:23:21;18.24;39.48
80132;SHT30;69442;51.442;10.564;2023-06-14T01:25:47;18.16;39.24
80132;SHT30;69442;51.442;10.564;2023-06-14T01:28:19;18.12;39.24
80132;SHT30;69442;51.442;10.564;2023-06-14T01:30:48;18.06;39.54
80132;SHT30;69442;51.442;10.564;2023-06-14T01:33:20;18.00;39.55
80132;SHT30;69442;51.442;10.564;2023-06-14T01:35:55;17.97;39.57
80132;SHT30;69442;51.442;10.564;2023-06-14T01:38:24;17.91;39.58
80132;SHT30;69442;51.442;10.564;2023-06-14T01:40:50;17.87;39.76
80132;SHT30;69442;51.442;10.564;2023-06-14T01:43:18;17.80;39.85
80132;SHT30;69442;51.442;10.564;2023-06-14T01:45:45;17.73;39.83
80132;SHT30;69442;51.442;10.564;2023-06-14T01:48:12;17.70;39.98
80132;SHT30;69442;51.442;10.564;2023-06-14T01:50:38;17.63;40.02
80132;SHT30;69442;51.442;10.564;2023-06-14T01:53:06;17.62;39.96
80132;SHT30;69442;51.442;10.564;2023-06-14T01:55:32;17.56;39.77
80132;SHT30;69442;51.442;10.564;2023-06-14T01:58:02;17.47;39.78
80132;SHT30;69442;51.442;10.564;2023-06-14T02:00:28;17.49;40.04
80132;SHT30;69442;51.442;10.564;2023-06-14T02:02:53;17.39;40.13
80132;SHT30;69442;51.442;10.564;2023-06-14T02:05:19;17.32;40.17
80132;SHT30;69442;51.442;10.564;2023-06-14T02:07:45;17.29;40.46
80132;SHT30;69442;51.442;10.564;2023-06-14T02:10:11;17.24;40.37
80132;SHT30;69442;51.442;10.564;2023-06-14T02:12:37;17.21;40.59
80132;SHT30;69442;51.442;10.564;2023-06-14T02:15:02;17.12;40.94
80132;SHT30;69442;51.442;10.564;2023-06-14T02:17:28;17.07;41.12
80132;SHT30;69442;51.442;10.564;2023-06-14T02:19:54;17.01;41.08
80132;SHT30;69442;51.442;10.564;2023-06-14T02:22:22;16.91;41.08
80132;SHT30;69442;51.442;10.564;2023-06-14T02:24:47;16.90;41.09
80132;SHT30;69442;51.442;10.564;2023-06-14T02:27:12;16.83;40.93
80132;SHT30;69442;51.442;10.564;2023-06-14T02:29:38;16.81;41.05
80132;SHT30;69442;51.442;10.564;2023-06-14T02:32:04;16.73;41.31
80132;SHT30;69442;51.442;10.564;2023-06-14T02:34:32;16.71;41.66
80132;SHT30;69442;51.442;10.564;2023-06-14T02:36:58;16.66;41.80
80132;SHT30;69442;51.442;10.564;2023-06-14T02:39:23;16.60;42.00
80132;SHT30;69442;51.442;10.564;2023-06-14T02:41:51;16.55;42.03
80132;SHT30;69442;51.442;10.564;2023-06-14T02:44:17;16.52;42.06
80132;SHT30;69442;51.442;10.564;2023-06-14T02:46:43;16.45;42.30
80132;SHT30;69442;51.442;10.564;2023-06-14T02:49:09;16.39;42.25
80132;SHT30;69442;51.442;10.564;2023-06-14T02:51:35;16.38;42.10
80132;SHT30;69442;51.442;10.564;2023-06-14T02:54:00;16.35;42.37
80132;SHT30;69442;51.442;10.564;2023-06-14T02:56:26;16.30;42.43
80132;SHT30;69442;51.442;10.564;2023-06-14T02:58:53;16.25;42.58
80132;SHT30;69442;51.442;10.564;2023-06-14T03:01:18;16.21;43.01
80132;SHT30;69442;51.442;10.564;2023-06-14T03:03:45;16.15;43.18
80132;SHT30;69442;51.442;10.564;2023-06-14T03:06:11;16.12;43.43
80132;SHT30;69442;51.442;10.564;2023-06-14T03:08:38;16.07;43.29
80132;SHT30;69442;51.442;10.564;2023-06-14T03:11:04;16.04;43.11
80132;SHT30;69442;51.442;10.564;2023-06-14T03:13:36;16.00;43.15
80132;SHT30;69442;51.442;10.564;2023-06-14T03:16:02;15.94;43.15
80132;SHT30;69442;51.442;10.564;2023-06-14T03:18:29;15.93;43.28
80132;SHT30;69442;51.442;10.564;2023-06-14T03:20:56;15.87;43.37
80132;SHT30;69442;51.442;10.564;2023-06-14T03:23:24;15.86;43.12
80132;SHT30;69442;51.442;10.564;2023-06-14T03:25:49;15.82;43.20
80132;SHT30;69442;51.442;10.564;2023-06-14T03:28:14;15.80;43.64
80132;SHT30;69442;51.442;10.564;2023-06-14T03:30:40;15.76;43.32
80132;SHT30;69442;51.442;10.564;2023-06-14T03:33:05;15.71;43.29
80132;SHT30;69442;51.442;10.564;2023-06-14T03:35:31;15.67;43.02
80132;SHT30;69442;51.442;10.564;2023-06-14T03:37:56;15.67;43.10
80132;SHT30;69442;51.442;10.564;2023-06-14T03:40:22;15.62;43.27
80132;SHT30;69442;51.442;10.564;2023-06-14T03:42:50;15.62;43.39
80132;SHT30;69442;51.442;10.564;2023-06-14T03:45:16;15.55;43.38
80132;SHT30;69442;51.442;10.564;2023-06-14T03:47:41;15.52;43.51
80132;SHT30;69442;51.442;10.564;2023-06-14T03:50:07;15.49;43.70
80132;SHT30;69442;51.442;10.564;2023-06-14T03:52:33;15.43;43.62
80132;SHT30;69442;51.442;10.564;2023-06-14T03:54:58;15.45;43.91
80132;SHT30;69442;51.442;10.564;2023-06-14T03:57:25;15.38;43.89
80132;SHT30;69442;51.442;10.564;2023-06-14T03:59:51;15.36;43.83
80132;SHT30;69442;51.442;10.564;2023-06-14T04:02:16;15.38;44.07
80132;SHT30;69442;51.442;10.564;2023-06-14T04:04:43;15.34;44.25
80132;SHT30;69442;51.442;10.564;2023-06-14T04:07:14;15.32;44.39
80132;SHT30;69442;51.442;10.564;2023-06-14T04:09:40;15.29;44.40
80132;SHT30;69442;51.442;10.564;2023-06-14T04:12:06;15.28;44.60
80132;SHT30;69442;51.442;10.564;2023-06-14T04:14:34;15.27;44.66
80132;SHT30;69442;51.442;10.564;2023-06-14T04:16:59;15.22;44.97
80132;SHT30;69442;51.442;10.564;2023-06-14T04:19:25;15.24;44.98
80132;SHT30;69442;51.442;10.564;2023-06-14T04:21:50;15.20;45.06
80132;SHT30;69442;51.442;10.564;2023-06-14T04:24:16;15.18;45.20
80132;SHT30;69442;51.442;10.564;2023-06-14T04:26:42;15.17;45.25
80132;SHT30;69442;51.442;10.564;2023-06-14T04:29:13;15.15;45.61
80132;SHT30;69442;51.442;10.564;2023-06-14T04:31:42;15.14;45.77
80132;SHT30;69442;51.442;10.564;2023-06-14T04:34:09;15.12;45.73
80132;SHT30;69442;51.442;10.564;2023-06-14T04:36:41;15.11;45.93
80132;SHT30;69442;51.442;10.564;2023-06-14T04:39:07;15.10;46.04
80132;SHT30;69442;51.442;10.564;2023-06-14T04:41:33;15.10;46.14
80132;SHT30;69442;51.442;10.564;2023-06-14T04:44:00;15.07;46.24
80132;SHT30;69442;51.442;10.564;2023-06-14T04:46:29;15.07;46.42
80132;SHT30;69442;51.442;10.564;2023-06-14T04:48:55;15.04;46.43
80132;SHT30;69442;51.442;10.564;2023-06-14T04:51:21;15.04;46.34
80132;SHT30;69442;51.442;10.564;2023-06-14T04:53:57;15.04;46.48
80132;SHT30;69442;51.442;10.564;2023-06-14T04:56:24;15.04;46.56
80132;SHT30;69442;51.442;10.564;2023-06-14T04:58:50;15.04;46.72
80132;SHT30;69442;51.442;10.564;2023-06-14T05:01:15;15.05;46.72
80132;SHT30;69442;51.442;10.564;2023-06-14T05:03:41;15.05;46.78
80132;SHT30;69442;51.442;10.564;2023-06-14T05:06:06;15.04;47.01
80132;SHT30;69442;51.442;10.564;2023-06-14T05:08:32;15.05;47.09
80132;SHT30;69442;51.442;10.564;2023-06-14T05:10:57;15.08;47.36
80132;SHT30;69442;51.442;10.564;2023-06-14T05:13:23;15.08;47.50
80132;SHT30;69442;51.442;10.564;2023-06-14T05:15:48;15.10;47.39
80132;SHT30;69442;51.442;10.564;2023-06-14T05:18:14;15.07;47.54
80132;SHT30;69442;51.442;10.564;2023-06-14T05:20:40;15.14;47.92
80132;SHT30;69442;51.442;10.564;2023-06-14T05:23:07;15.11;47.91
80132;SHT30;69442;51.442;10.564;2023-06-14T05:25:32;15.17;47.82
80132;SHT30;69442;51.442;10.564;2023-06-14T05:27:58;15.14;48.34
80132;SHT30;69442;51.442;10.564;2023-06-14T05:30:23;15.14;48.39
80132;SHT30;69442;51.442;10.564;2023-06-14T05:32:48;15.17;48.42
80132;SHT30;69442;51.442;10.564;2023-06-14T05:35:14;15.17;48.61
80132;SHT30;69442;51.442;10.564;2023-06-14T05:37:39;15.21;48.86
80132;SHT30;69442;51.442;10.564;2023-06-14T05:40:06;15.22;48.77
80132;SHT30;69442;51.442;10.564;2023-06-14T05:42:32;15.27;48.70
80132;SHT30;69442;51.442;10.564;2023-06-14T05:44:58;15.25;49.05
80132;SHT30;69442;51.442;10.564;2023-06-14T05:47:23;15.31;48.63
80132;SHT30;69442;51.442;10.564;2023-06-14T05:49:48;15.29;49.03
80132;SHT30;69442;51.442;10.564;2023-06-14T05:52:14;15.32;49.16
80132;SHT30;69442;51.442;10.564;2023-06-14T05:54:39;15.35;49.00
80132;SHT30;69442;51.442;10.564;2023-06-14T05:57:05;15.38;49.01
80132;SHT30;69442;51.442;10.564;2023-06-14T05:59:31;15.40;49.03
80132;SHT30;69442;51.442;10.564;2023-06-14T06:01:57;15.42;49.41
80132;SHT30;69442;51.442;10.564;2023-06-14T06:04:23;15.49;49.59
80132;SHT30;69442;51.442;10.564;2023-06-14T06:06:48;15.50;49.89
80132;SHT30;69442;51.442;10.564;2023-06-14T06:09:13;15.53;49.69
80132;SHT30;69442;51.442;10.564;2023-06-14T06:11:42;15.59;49.94
80132;SHT30;69442;51.442;10.564;2023-06-14T06:14:07;15.66;49.88
80132;SHT30;69442;51.442;10.564;2023-06-14T06:16:32;15.69;49.97
80132;SHT30;69442;51.442;10.564;2023-06-14T06:18:58;15.76;49.69
80132;SHT30;69442;51.442;10.564;2023-06-14T06:21:24;15.80;50.01
80132;SHT30;69442;51.442;10.564;2023-06-14T06:23:51;15.89;50.29
80132;SHT30;69442;51.442;10.564;2023-06-14T06:26:16;15.93;50.16
80132;SHT30;69442;51.442;10.564;2023-06-14T06:28:42;16.00;50.66
80132;SHT30;69442;51.442;10.564;2023-06-14T06:31:07;16.07;50.83
80132;SHT30;69442;51.442;10.564;2023-06-14T06:33:32;16.11;51.10
80132;SHT30;69442;51.442;10.564;2023-06-14T06:35:58;16.21;51.20
80132;SHT30;69442;51.442;10.564;2023-06-14T06:38:23;16.29;51.15
80132;SHT30;69442;51.442;10.564;2023-06-14T06:40:49;16.36;51.24
80132;SHT30;69442;51.442;10.564;2023-06-14T06:43:14;16.42;51.36
80132;SHT30;69442;51.442;10.564;2023-06-14T06:45:42;16.51;51.58
80132;SHT30;69442;51.442;10.564;2023-06-14T06:48:07;16.59;51.78
80132;SHT30;69442;51.442;10.564;2023-06-14T06:50:35;16.67;51.50
80132;SHT30;69442;51.442;10.564;2023-06-14T06:53:01;16.79;51.41
80132;SHT30;69442;51.442;10.564;2023-06-14T06:55:26;16.87;51.29
80132;SHT30;69442;51.442;10.564;2023-06-14T06:57:51;16.97;51.35
80132;SHT30;69442;51.442;10.564;2023-06-14T07:00:19;17.03;51.50
80132;SHT30;69442;51.442;10.564;2023-06-14T07:02:44;17.10;51.36
80132;SHT30;69442;51.442;10.564;2023-06-14T07:05:10;17.18;51.30
80132;SHT30;69442;51.442;10.564;2023-06-14T07:07:35;17.26;50.89
80132;SHT30;69442;51.442;10.564;2023-06-14T07:10:01;17.40;50.90
80132;SHT30;69442;51.442;10.564;2023-06-14T07:12:29;17.47;50.62
80132;SHT30;69442;51.442;10.564;2023-06-14T07:14:56;17.59;50.16
80132;SHT30;69442;51.442;10.564;2023-06-14T07:17:22;17.69;50.37
80132;SHT30;69442;51.442;10.564;2023-06-14T07:19:47;17.80;49.99
80132;SHT30;69442;51.442;10.564;2023-06-14T07:22:12;17.90;50.08
80132;SHT30;69442;51.442;10.564;2023-06-14T07:24:39;18.01;49.49
80132;SHT30;69442;51.442;10.564;2023-06-14T07:27:05;18.14;49.56
80132;SHT30;69442;51.442;10.564;2023-06-14T07:29:31;18.22;49.36
80132;SHT30;69442;51.442;10.564;2023-06-14T07:31:56;18.33;49.39
80132;SHT30;69442;51.442;10.564;2023-06-14T07:34:23;18.46;49.00
80132;SHT30;69442;51.442;10.564;2023-06-14T07:36:48;18.56;48.91
80132;SHT30;69442;51.442;10.564;2023-06-14T07:39:13;18.67;48.62
80132;SHT30;69442;51.442;10.564;2023-06-14T07:41:39;18.78;48.37
80132;SHT30;69442;51.442;10.564;2023-06-14T07:44:05;18.90;47.81
80132;SHT30;69442;51.442;10.564;2023-06-14T07:46:30;19.01;47.55
80132;SHT30;69442;51.442;10.564;2023-06-14T07:48:56;19.15;47.38
80132;SHT30;69442;51.442;10.564;2023-06-14T07:51:21;19.28;46.75
80132;SHT30;69442;51.442;10.564;2023-06-14T07:53:48;19.40;46.58
80132;SHT30;69442;51.442;10.564;2023-06-14T07:56:13;19.49;46.59
80132;SHT30;69442;51.442;10.564;2023-06-14T07:58:39;19.57;46.34
80132;SHT30;69442;51.442;10.564;2023-06-14T08:01:04;19.67;45.74
80132;SHT30;69442;51.442;10.564;2023-06-14T08:03:33;19.78;45.55
80132;SHT30;69442;51.442;10.564;2023-06-14T08:05:58;19.88;45.24
80132;SHT30;69442;51.442;10.564;2023-06-14T08:08:24;20.01;45.08
80132;SHT30;69442;51.442;10.564;2023-06-14T08:10:49;20.14;44.64
80132;SHT30;69442;51.442;10.564;2023-06-14T08:13:15;20.26;44.17
80132;SHT30;69442;51.442;10.564;2023-06-14T08:15:41;20.37;44.22
80132;SHT30;69442;51.442;10.564;2023-06-14T08:18:06;20.44;44.25
80132;SHT30;69442;51.442;10.564;2023-06-14T08:20:31;20.52;44.08
80132;SHT30;69442;51.442;10.564;2023-06-14T08:22:57;20.59;43.86
80132;SHT30;69442;51.442;10.564;2023-06-14T08:25:23;20.64;43.67
80132;SHT30;69442;51.442;10.564;2023-06-14T08:27:48;20.67;43.53
80132;SHT30;69442;51.442;10.564;2023-06-14T08:30:15;20.76;43.37
80132;SHT30;69442;51.442;10.564;2023-06-14T08:32:42;20.81;43.04
80132;SHT30;69442;51.442;10.564;2023-06-14T08:35:08;20.88;42.91
80132;SHT30;69442;51.442;10.564;2023-06-14T08:37:38;20.94;42.75
80132;SHT30;69442;51.442;10.564;2023-06-14T08:40:04;20.99;42.66
80132;SHT30;69442;51.442;10.564;2023-06-14T08:42:32;21.09;42.50
80132;SHT30;69442;51.442;10.564;2023-06-14T08:44:58;21.19;42.28
80132;SHT30;69442;51.442;10.564;2023-06-14T08:47:25;21.30;42.07
80132;SHT30;69442;51.442;10.564;2023-06-14T08:49:53;21.43;41.93
80132;SHT30;69442;51.442;10.564;2023-06-14T08:52:21;21.57;41.87
80132;SHT30;69442;51.442;10.564;2023-06-14T08:54:48;21.70;41.70
80132;SHT30;69442;51.442;10.564;2023-06-14T08:57:14;21.78;41.62
80132;SHT30;69442;51.442;10.564;2023-06-14T08:59:47;21.85;41.50
80132;SHT30;69442;51.442;10.564;2023-06-14T09:02:18;22.00;41.38
80132;SHT30;69442;51.442;10.564;2023-06-14T09:04:45;22.12;41.19
80132;SHT30;69442;51.442;10.564;2023-06-14T09:07:11;22.22;41.08
80132;SHT30;69442;51.442;10.564;2023-06-14T09:09:41;22.30;40.88
80132;SHT30;69442;51.442;10.564;2023-06-14T09:12:10;22.39;40.76
80132;SHT30;69442;51.442;10.564;2023-06-14T09:14:37;22.46;40.64
80132;SHT30;69442;51.442;10.564;2023-06-14T09:17:05;22.56;40.55
80132;SHT30;69442;51.442;10.564;2023-06-14T09:19:31;22.64;40.44
80132;SHT30;69442;51.442;10.564;2023-06-14T09:21:56;22.71;40.32
80132;SHT30;69442;51.442;10.564;2023-06-14T09:24:23;22.80;40.26
80132;SHT30;69442;51.442;10.564;2023-06-14T09:26:50;22.91;40.16
80132;SHT30;69442;51.442;10.564;2023-06-14T09:29:16;23.04;40.10
80132;SHT30;69442;51.442;10.564;2023-06-14T09:31:42;23.20;39.92
80132;SHT30;69442;51.442;10.564;2023-06-14T09:34:09;23.34;39.79
80132;SHT30;69442;51.442;10.564;2023-06-14T09:36:34;23.50;39.65
80132;SHT30;69442;51.442;10.564;2023-06-14T09:39:01;23.67;39.39
80132;SHT30;69442;51.442;10.564;2023-06-14T09:44:00;23.98;39.17
80132;SHT30;69442;51.442;10.564;2023-06-14T09:46:27;24.11;38.97
80132;SHT30;69442;51.442;10.564;2023-06-14T09:48:53;24.16;38.75
80132;SHT30;69442;51.442;10.564;2023-06-14T09:51:19;24.19;38.63
80132;SHT30;69442;51.442;10.564;2023-06-14T09:53:48;24.28;38.61
80132;SHT30;69442;51.442;10.564;2023-06-14T09:59:26;24.37;38.28
80132;SHT30;69442;51.442;10.564;2023-06-14T10:01:57;24.46;38.38
80132;SHT30;69442;51.442;10.564;2023-06-14T10:04:25;24.53;38.32
80132;SHT30;69442;51.442;10.564;2023-06-14T10:06:52;24.67;38.21
80132;SHT30;69442;51.442;10.564;2023-06-14T10:09:18;24.78;38.11
80132;SHT30;69442;51.442;10.564;2023-06-14T10:11:45;24.90;37.91
80132;SHT30;69442;51.442;10.564;2023-06-14T10:14:12;25.02;37.74
80132;SHT30;69442;51.442;10.564;2023-06-14T10:16:47;25.07;37.42
80132;SHT30;69442;51.442;10.564;2023-06-14T10:19:29;25.15;37.38
80132;SHT30;69442;51.442;10.564;2023-06-14T10:22:09;25.22;37.23
80132;SHT30;69442;51.442;10.564;2023-06-14T10:24:41;25.29;37.24
80132;SHT30;69442;51.442;10.564;2023-06-14T10:27:07;25.32;37.28
80132;SHT30;69442;51.442;10.564;2023-06-14T10:32:20;25.39;37.11
80132;SHT30;69442;51.442;10.564;2023-06-14T10:34:53;25.39;36.78
80132;SHT30;69442;51.442;10.564;2023-06-14T10:37:19;25.43;36.80
80132;SHT30;69442;51.442;10.564;2023-06-14T10:39:45;25.46;36.73
80132;SHT30;69442;51.442;10.564;2023-06-14T10:42:14;25.47;36.54
80132;SHT30;69442;51.442;10.564;2023-06-14T10:44:47;25.50;36.38
80132;SHT30;69442;51.442;10.564;2023-06-14T10:49:50;25.49;36.38
80132;SHT30;69442;51.442;10.564;2023-06-14T10:52:16;25.51;36.35
80132;SHT30;69442;51.442;10.564;2023-06-14T10:55:10;25.50;35.94
80132;SHT30;69442;51.442;10.564;2023-06-14T10:57:50;25.50;36.10
80132;SHT30;69442;51.442;10.564;2023-06-14T11:00:18;25.51;36.51
80132;SHT30;69442;51.442;10.564;2023-06-14T11:05:28;25.71;36.44
80132;SHT30;69442;51.442;10.564;2023-06-14T11:10:47;25.95;36.21
80132;SHT30;69442;51.442;10.564;2023-06-14T11:13:16;26.08;36.17
80132;SHT30;69442;51.442;10.564;2023-06-14T11:15:44;26.26;35.96
80132;SHT30;69442;51.442;10.564;2023-06-14T11:18:12;26.44;35.86
80132;SHT30;69442;51.442;10.564;2023-06-14T11:20:39;26.64;35.69
80132;SHT30;69442;51.442;10.564;2023-06-14T11:23:05;26.83;35.54
80132;SHT30;69442;51.442;10.564;2023-06-14T11:25:30;26.98;35.29
80132;SHT30;69442;51.442;10.564;2023-06-14T11:27:57;27.09;35.19
80132;SHT30;69442;51.442;10.564;2023-06-14T11:30:23;27.16;35.10
80132;SHT30;69442;51.442;10.564;2023-06-14T11:32:49;27.21;35.00
80132;SHT30;69442;51.442;10.564;2023-06-14T11:35:17;27.23;35.00
80132;SHT30;69442;51.442;10.564;2023-06-14T11:37:43;27.25;34.97
80132;SHT30;69442;51.442;10.564;2023-06-14T11:40:10;27.28;34.90
80132;SHT30;69442;51.442;10.564;2023-06-14T11:42:37;27.29;34.99
80132;SHT30;69442;51.442;10.564;2023-06-14T11:45:05;27.33;34.89
80132;SHT30;69442;51.442;10.564;2023-06-14T11:47:33;27.36;34.83
80132;SHT30;69442;51.442;10.564;2023-06-14T11:50:03;27.40;34.81
80132;SHT30;69442;51.442;10.564;2023-06-14T11:52:28;27.43;35.02
80132;SHT30;69442;51.442;10.564;2023-06-14T11:54:54;27.49;34.97
80132;SHT30;69442;51.442;10.564;2023-06-14T11:57:20;27.57;34.95
80132;SHT30;69442;51.442;10.564;2023-06-14T11:59:46;27.70;34.82
80132;SHT30;69442;51.442;10.564;2023-06-14T12:02:19;27.84;34.61
80132;SHT30;69442;51.442;10.564;2023-06-14T12:04:46;28.02;34.57
80132;SHT30;69442;51.442;10.564;2023-06-14T12:07:14;28.15;34.42
80132;SHT30;69442;51.442;10.564;2023-06-14T12:12:25;28.26;34.10
80132;SHT30;69442;51.442;10.564;2023-06-14T12:14:50;28.29;34.16
80132;SHT30;69442;51.442;10.564;2023-06-14T12:17:17;28.31;34.15
80132;SHT30;69442;51.442;10.564;2023-06-14T12:19:43;28.32;34.16
80132;SHT30;69442;51.442;10.564;2023-06-14T12:22:10;28.31;34.16
80132;SHT30;69442;51.442;10.564;2023-06-14T12:24:36;28.23;34.23
80132;SHT30;69442;51.442;10.564;2023-06-14T12:27:03;28.19;34.15
80132;SHT30;69442;51.442;10.564;2023-06-14T12:29:29;28.10;34.21
80132;SHT30;69442;51.442;10.564;2023-06-14T12:31:55;28.08;34.38
80132;SHT30;69442;51.442;10.564;2023-06-14T12:34:26;28.05;34.44
80132;SHT30;69442;51.442;10.564;2023-06-14T12:36:53;28.09;34.36
80132;SHT30;69442;51.442;10.564;2023-06-14T12:39:19;28.10;34.30
80132;SHT30;69442;51.442;10.564;2023-06-14T12:41:44;28.13;34.30
80132;SHT30;69442;51.442;10.564;2023-06-14T12:44:11;28.12;34.33
80132;SHT30;69442;51.442;10.564;2023-06-14T12:46:36;28.09;34.23
80132;SHT30;69442;51.442;10.564;2023-06-14T12:49:02;28.01;33.92
80132;SHT30;69442;51.442;10.564;2023-06-14T12:51:27;27.97;34.19
80132;SHT30;69442;51.442;10.564;2023-06-14T12:53:53;27.94;34.35
80132;SHT30;69442;51.442;10.564;2023-06-14T12:56:18;27.94;34.39
80132;SHT30;69442;51.442;10.564;2023-06-14T12:58:43;27.92;34.39
80132;SHT30;69442;51.442;10.564;2023-06-14T13:01:09;27.90;34.44
80132;SHT30;69442;51.442;10.564;2023-06-14T13:03:34;27.91;34.46
80132;SHT30;69442;51.442;10.564;2023-06-14T13:06:01;27.90;34.41
80132;SHT30;69442;51.442;10.564;2023-06-14T13:08:26;27.92;34.39
80132;SHT30;69442;51.442;10.564;2023-06-14T13:10:52;27.95;34.49
80132;SHT30;69442;51.442;10.564;2023-06-14T13:13:18;27.95;34.36
80132;SHT30;69442;51.442;10.564;2023-06-14T13:15:43;27.99;34.40
80132;SHT30;69442;51.442;10.564;2023-06-14T13:18:09;27.98;34.39
80132;SHT30;69442;51.442;10.564;2023-06-14T13:20:34;27.98;34.39
80132;SHT30;69442;51.442;10.564;2023-06-14T13:22:59;27.97;34.25
80132;SHT30;69442;51.442;10.564;2023-06-14T13:25:25;27.91;34.19
80132;SHT30;69442;51.442;10.564;2023-06-14T13:27:50;27.84;34.28
80132;SHT30;69442;51.442;10.564;2023-06-14T13:30:16;27.78;34.03
80132;SHT30;69442;51.442;10.564;2023-06-14T13:32:41;27.71;34.15
80132;SHT30;69442;51.442;10.564;2023-06-14T13:35:07;27.67;34.45
80132;SHT30;69442;51.442;10.564;2023-06-14T13:37:33;27.70;34.43
80132;SHT30;69442;51.442;10.564;2023-06-14T13:39:58;27.71;34.44
80132;SHT30;69442;51.442;10.564;2023-06-14T13:42:24;27.77;34.44
80132;SHT30;69442;51.442;10.564;2023-06-14T13:44:49;27.80;34.37
80132;SHT30;69442;51.442;10.564;2023-06-14T13:47:16;27.81;34.35
80132;SHT30;69442;51.442;10.564;2023-06-14T13:49:42;27.78;34.43
80132;SHT30;69442;51.442;10.564;2023-06-14T13:52:07;27.76;34.43
80132;SHT30;69442;51.442;10.564;2023-06-14T13:54:32;27.77;34.48
80132;SHT30;69442;51.442;10.564;2023-06-14T13:56:58;27.78;34.52
80132;SHT30;69442;51.442;10.564;2023-06-14T13:59:23;27.84;34.52
80132;SHT30;69442;51.442;10.564;2023-06-14T14:01:49;27.82;34.55
80132;SHT30;69442;51.442;10.564;2023-06-14T14:04:14;27.82;34.52
80132;SHT30;69442;51.442;10.564;2023-06-14T14:06:40;27.87;34.48
80132;SHT30;69442;51.442;10.564;2023-06-14T14:09:05;27.90;34.47
80132;SHT30;69442;51.442;10.564;2023-06-14T14:11:31;27.92;34.47
80132;SHT30;69442;51.442;10.564;2023-06-14T14:13:58;27.88;34.38
80132;SHT30;69442;51.442;10.564;2023-06-14T14:16:23;27.90;34.46
80132;SHT30;69442;51.442;10.564;2023-06-14T14:18:49;27.87;34.31
80132;SHT30;69442;51.442;10.564;2023-06-14T14:21:14;27.81;34.18
80132;SHT30;69442;51.442;10.564;2023-06-14T14:23:40;27.81;34.35
80132;SHT30;69442;51.442;10.564;2023-06-14T14:26:05;27.80;34.35
80132;SHT30;69442;51.442;10.564;2023-06-14T14:28:31;27.80;34.43
80132;SHT30;69442;51.442;10.564;2023-06-14T14:30:58;27.80;34.39
80132;SHT30;69442;51.442;10.564;2023-06-14T14:33:23;27.77;34.44
80132;SHT30;69442;51.442;10.564;2023-06-14T14:35:48;27.74;34.46
80132;SHT30;69442;51.442;10.564;2023-06-14T14:38:14;27.73;34.47
80132;SHT30;69442;51.442;10.564;2023-06-14T14:40:43;27.70;34.42
80132;SHT30;69442;51.442;10.564;2023-06-14T14:43:09;27.77;34.38
80132;SHT30;69442;51.442;10.564;2023-06-14T14:45:35;27.76;34.50
80132;SHT30;69442;51.442;10.564;2023-06-14T14:48:00;27.81;34.43
80132;SHT30;69442;51.442;10.564;2023-06-14T14:50:26;27.84;34.41
80132;SHT30;69442;51.442;10.564;2023-06-14T14:52:51;27.92;34.38
80132;SHT30;69442;51.442;10.564;2023-06-14T14:55:17;27.95;34.36
80132;SHT30;69442;51.442;10.564;2023-06-14T14:57:43;27.98;34.45
80132;SHT30;69442;51.442;10.564;2023-06-14T15:00:09;28.06;34.36
80132;SHT30;69442;51.442;10.564;2023-06-14T15:02:34;28.09;34.35
80132;SHT30;69442;51.442;10.564;2023-06-14T15:05:00;28.12;34.26
80132;SHT30;69442;51.442;10.564;2023-06-14T15:07:31;28.16;34.18
80132;SHT30;69442;51.442;10.564;2023-06-14T15:09:59;28.22;34.29
80132;SHT30;69442;51.442;10.564;2023-06-14T15:12:25;28.26;34.13
80132;SHT30;69442;51.442;10.564;2023-06-14T15:14:51;28.32;34.15
80132;SHT30;69442;51.442;10.564;2023-06-14T15:17:21;28.35;34.15
80132;SHT30;69442;51.442;10.564;2023-06-14T15:19:47;28.37;34.23
80132;SHT30;69442;51.442;10.564;2023-06-14T15:22:13;28.37;34.23
80132;SHT30;69442;51.442;10.564;2023-06-14T15:24:40;28.39;34.24
80132;SHT30;69442;51.442;10.564;2023-06-14T15:27:06;28.40;34.30
80132;SHT30;69442;51.442;10.564;2023-06-14T15:29:31;28.47;34.35
80132;SHT30;69442;51.442;10.564;2023-06-14T15:31:56;28.57;34.34